Flight Track Log - Related Links

Times and Time Zones

All times are in EDT time to prevent confusion due to time zone crossing. See the DAL268 flight status page for this flight to view local times or setup timezone preferences in your user account.

Time Position Orientation Groundspeed Altitude Reporting Facility
EDT Latitude Longitude Course Direction KTS MPH feet Rate Location/Type
Wed 06:07:33 PM 33.6333 -84.4833 64° Northeast 184 212 2,400  Level Atlanta TRACON
Wed 06:08:33 PM 33.6000 -84.5500 239° Southwest 246 283 3,600 1,800 Climbing Atlanta TRACON
Wed 06:09:00 PM 33.7132 -84.0121 101° East  Level FlightAware Approximate
Wed 06:09:33 PM 33.5500 -84.5833 209° Southwest 272 313 6,000  Level Atlanta TRACON
Wed 06:10:00 PM 33.6904 -83.8755 101° East  Level FlightAware Approximate
Wed 06:10:33 PM 33.4667 -84.5667 171° South 288 331 8,700  Level Atlanta TRACON
Wed 06:11:00 PM 33.6676 -83.7389 101° East  Level FlightAware Approximate
Wed 06:12:00 PM 33.6616 -83.6049 64° Northeast  Level FlightAware Approximate
Wed 06:12:43 PM 33.4578 -84.3450 93° East 332 382 11,700  Level Atlanta Center
Wed 06:13:43 PM 33.4789 -84.2181 79° East 369 425 13,000 1,850 Climbing Atlanta Center
Wed 06:14:43 PM 33.5333 -84.0936 62° Northeast 381 438 15,400 2,050 Climbing Atlanta Center
Wed 06:15:43 PM 33.5856 -83.9639 64° Northeast 402 463 17,100 1,600 Climbing Atlanta Center
Wed 06:16:43 PM 33.6228 -83.8242 72° East 428 493 18,600 1,400 Climbing Atlanta Center
Wed 06:17:43 PM 33.6517 -83.6769 77° East 441 507 19,900 1,400 Climbing Atlanta Center
Wed 06:18:43 PM 33.7056 -83.5319 66° East 463 533 21,400 1,400 Climbing Atlanta Center
Wed 06:19:43 PM 33.7611 -83.3892 65° Northeast 473 544 22,700 1,250 Climbing Atlanta Center
Wed 06:20:43 PM 33.8208 -83.2436 64° Northeast 480 552 23,900 1,250 Climbing Atlanta Center
Wed 06:21:43 PM 33.8864 -83.0803 64° Northeast 486 559 25,200 1,650 Climbing Atlanta Center
Wed 06:22:43 PM 33.9436 -82.9319 65° Northeast 486 559 27,200 1,400 Climbing Atlanta Center
Wed 06:23:43 PM 34.0008 -82.7908 64° Northeast 479 551 28,000 850 Climbing Atlanta Center
Wed 06:24:43 PM 34.0597 -82.6422 64° Northeast 479 551 28,900 850 Climbing Atlanta Center
Wed 06:25:43 PM 34.1186 -82.4981 64° Northeast 479 551 29,700 750 Climbing Atlanta Center
Wed 06:26:43 PM 34.1689 -82.3667 65° Northeast 479 551 30,400 800 Climbing Atlanta Center
Wed 06:27:43 PM 34.2275 -82.2172 65° Northeast 484 557 31,300 750 Climbing Atlanta Center
Wed 06:28:43 PM 34.2900 -82.0778 61° Northeast 479 551 31,900 400 Climbing Atlanta Center
Wed 06:29:43 PM 34.3586 -81.9403 59° Northeast 479 551 32,100 400 Climbing Atlanta Center
Wed 06:30:43 PM 34.4292 -81.8050 58° Northeast 474 545 32,700 450 Climbing Atlanta Center
Wed 06:31:43 PM 34.4933 -81.6672 61° Northeast 468 539 33,000 150 Climbing Atlanta Center
Wed 06:32:43 PM 34.5617 -81.5317 59° Northeast 468 539 33,000  Level Atlanta Center
Wed 06:33:43 PM 34.6381 -81.3853 58° Northeast 478 550 33,000  Level Atlanta Center
Wed 06:34:43 PM 34.7058 -81.2417 60° Northeast 480 552 33,000  Level Atlanta Center
Wed 06:35:44 PM 34.7733 -81.1031 59° Northeast 484 557 33,000  Level Atlanta Center
Wed 06:36:43 PM 34.8411 -80.9664 59° Northeast 474 545 33,000  Level Atlanta Center
Wed 06:38:35 PM 34.9567 -80.7261 60° Northeast 476 548 33,000  Level Washington Center
Wed 06:39:33 PM 35.0231 -80.5858 60° Northeast 471 542 33,000  Level Washington Center
Wed 06:40:34 PM 35.0872 -80.4503 60° Northeast 471 542 33,000  Level Washington Center
Wed 06:41:35 PM 35.1533 -80.3094 60° Northeast 471 542 33,000  Level Washington Center
Wed 06:42:35 PM 35.2211 -80.1711 59° Northeast 471 542 33,000  Level Washington Center
Wed 06:43:33 PM 35.2869 -80.0372 59° Northeast 462 532 33,000  Level Washington Center
Wed 06:44:33 PM 35.3525 -79.8983 60° Northeast 462 532 33,000  Level Washington Center
Wed 06:45:34 PM 35.4017 -79.7481 68° East 462 532 33,000  Level Washington Center
Wed 06:46:35 PM 35.4464 -79.5950 70° East 462 532 33,000  Level Washington Center
Wed 06:47:35 PM 35.4911 -79.4417 70° East 467 537 33,000  Level Washington Center
Wed 06:48:33 PM 35.5425 -79.2703 70° East 478 550 33,000  Level Washington Center
Wed 06:49:33 PM 35.5867 -79.1167 70° East 478 550 33,000  Level Washington Center
Wed 06:50:33 PM 35.6261 -78.9778 71° East 478 550 33,000  Level Washington Center
Wed 06:51:33 PM 35.6722 -78.8239 70° East 478 550 33,000  Level Washington Center
Wed 06:52:34 PM 35.7181 -78.6644 70° East 483 556 33,000  Level Washington Center
Wed 06:53:34 PM 35.7617 -78.5075 71° East 483 556 33,000  Level Washington Center
Wed 06:54:35 PM 35.8031 -78.3503 72° East 476 548 33,000  Level Washington Center
Wed 06:55:35 PM 35.8461 -78.1956 71° East 476 548 33,000  Level Washington Center
Wed 06:56:33 PM 35.8869 -78.0403 72° East 476 548 33,000  Level Washington Center
Wed 06:57:33 PM 35.9342 -77.8725 71° East 476 548 33,000  Level Washington Center
Wed 06:58:35 PM 35.9764 -77.7197 71° East 476 548 33,000  Level Washington Center
Wed 06:59:33 PM 36.0475 -77.5906 56° Northeast 465 535 33,000  Level Washington Center
Wed 07:00:33 PM 36.1269 -77.4614 53° Northeast 462 532 33,000  Level Washington Center
Wed 07:01:33 PM 36.1975 -77.3525 51° Northeast 467 537 33,000  Level Washington Center
Wed 07:02:34 PM 36.2600 -77.2122 61° Northeast 467 537 33,000  Level Washington Center
Wed 07:03:35 PM 36.3119 -77.0614 67° East 460 529 33,000  Level Washington Center
Wed 07:04:33 PM 36.3617 -76.9125 67° East 460 529 33,000 -51 Level Washington Center
Wed 07:05:33 PM 36.4153 -76.7714 65° Northeast 455 524 32,900  Descending Washington Center
Wed 07:06:34 PM 36.5164 -76.6567 42° Northeast 447 514 33,000 50 Climbing Washington Center
Wed 07:07:34 PM 36.6256 -76.5781 30° Northeast 430 495 33,000  Level Washington Center
Wed 07:08:35 PM 36.7200 -76.5039 32° Northeast 441 507 33,000  Level Washington Center
Wed 07:09:35 PM 36.8250 -76.4222 32° Northeast 441 507 33,000  Level Washington Center
Wed 07:10:33 PM 36.9339 -76.3403 31° Northeast 441 507 33,000  Level Washington Center
Wed 07:11:34 PM 37.0514 -76.2503 31° Northeast 446 513 33,000  Level Washington Center
Wed 07:12:35 PM 37.1603 -76.1653 32° Northeast 451 519 33,000  Level Washington Center
Wed 07:13:35 PM 37.2711 -76.0853 30° Northeast 451 519 33,000  Level Washington Center
Wed 07:14:34 PM 37.3758 -76.0022 32° Northeast 451 519 33,000  Level Washington Center
Wed 07:15:34 PM 37.4844 -75.9164 32° Northeast 451 519 33,000  Level Washington Center
Wed 07:16:35 PM 37.5931 -75.8328 31° Northeast 451 519 33,000  Level Washington Center
Wed 07:17:35 PM 37.7017 -75.7492 31° Northeast 451 519 33,000  Level Washington Center
Wed 07:18:33 PM 37.8103 -75.6681 31° Northeast 451 519 33,000  Level Washington Center
Wed 07:19:33 PM 37.9144 -75.5839 33° Northeast 451 519 33,000  Level Washington Center
Wed 07:20:34 PM 38.0208 -75.4969 33° Northeast 451 519 33,000  Level Washington Center
Wed 07:21:35 PM 38.1314 -75.4228 28° Northeast 445 512 33,000  Level Washington Center
Wed 07:22:33 PM 38.2417 -75.3539 26° Northeast 440 506 33,000  Level Washington Center
Wed 07:23:34 PM 38.3500 -75.2792 28° Northeast 440 506 33,000  Level Washington Center
Wed 07:24:34 PM 38.4644 -75.2072 26° Northeast 440 506 33,000  Level Washington Center
Wed 07:25:35 PM 38.5767 -75.1350 27° Northeast 440 506 33,000  Level Washington Center
Wed 07:26:33 PM 38.6889 -75.0650 26° Northeast 447 514 33,000  Level Washington Center
Wed 07:27:34 PM 38.7992 -74.9978 25° Northeast 447 514 33,000 -393 Level Washington Center
Wed 07:28:35 PM 38.9072 -74.9247 28° Northeast 437 503 32,200 -1,160 Descending Washington Center
Wed 07:29:33 PM 39.0111 -74.8597 26° Northeast 427 491 30,700 -1,627 Descending Washington Center
Wed 07:30:33 PM 39.1106 -74.7864 30° Northeast 416 479 29,000 -1,835 Descending Washington Center
Wed 07:31:34 PM 39.1975 -74.6917 40° Northeast 406 467 27,000 -1,850 Descending Washington Center
Wed 07:32:33 PM 39.2822 -74.5994 40° Northeast 401 461 25,300 -1,733 Descending Washington Center
Wed 07:34:41 PM 39.4528 -74.4167 40° Northeast 366 421 21,600 -1,883 Descending New York Center
Wed 07:35:41 PM 39.5306 -74.3292 41° Northeast 361 415 19,400 -1,289 Descending New York Center
Wed 07:36:42 PM 39.5994 -74.2544 40° Northeast 366 421 19,000 -942 Descending New York Center
Wed 07:37:42 PM 39.6728 -74.1744 40° Northeast 360 414 17,500 -1,785 Descending New York Center
Wed 07:38:43 PM 39.7525 -74.0839 41° Northeast 345 397 15,400 -1,884 Descending New York Center
Wed 07:39:43 PM 39.8253 -74.0061 39° Northeast 340 391 13,700 -1,627 Descending New York Center
Wed 07:40:41 PM 39.9000 -73.9475 31° Northeast 333 383 12,200 -1,361 Descending New York Center
Wed 07:41:42 PM 39.9681 -73.8964 30° Northeast 316 364 11,000 -590 Descending New York Center
Wed 07:42:43 PM 40.0350 -73.8100 45° Northeast 303 349 11,000 -700 Level New York Center
Wed 07:43:42 PM 40.0972 -73.7339 43° Northeast 298 343 9,600 -1,450 Descending New York Center
Wed 07:44:43 PM 40.1500 -73.7833 324° Northwest 237 273 8,100 -1,574 Descending New York TRACON
Wed 07:45:44 PM 40.2000 -73.8333 323° Northwest 233 268 6,400 -1,736 Descending New York TRACON
Wed 07:46:44 PM 40.2500 -73.9000 315° West 243 280 4,600 -1,619 Descending New York TRACON
Wed 07:47:50 PM 40.3000 -73.9667 315° West 244 281 3,000 -1,455 Descending New York TRACON

Login

Don't have an account? Register now (free) for customized features, flight alerts, and more!